Nearby METAR Reports

 

KRNT - Renton, Washington, USA
Distance from station: NNW 3mi, 4km
Updated: Wed, 30-Nov-2022 7:53am PST
NOT Current
Mostly cloudy
Mostly cloudy
 Wind from SE
Wind: SE 3 mph , 6 km/h
Temperature: 39°F , 4°C
Dew Point: 36°F , 2°C
Humidity: 87%
Barometer: 29.49 inHg , 998.6 hPa
Clouds: Mostly cloudy
Visibility: 10 miles , 16 km
Cloud details: Mostly cloudy 2500 ft
2022/11/30 15:53 KRNT 301553Z 14003KT 10SM BKN025 04/02 A2949 RMK AO2 SLP991 T00440022
KSEA - Seattle/Metro, Washington, USA
Distance from station: W 5mi, 9km
Updated: Wed, 30-Nov-2022 8:04am PST
Mostly cloudy
Mostly cloudy
 Wind from S
Wind: S 12 mph , 19 km/h
Temperature: 39°F , 4°C
Wind Chill: 32°F , 0°C
Dew Point: 36°F , 2°C
Humidity: 87%
Barometer: 29.48 inHg , 998.3 hPa
Clouds: Mostly cloudy
Visibility: 10 miles , 16 km
Cloud details: Few Clouds 1000 ft
Mostly cloudy 1800 ft
2022/11/30 16:04 KSEA 301604Z 18010KT 10SM FEW010 BKN018 04/02 A2948 RMK AO2 T00440022
KBFI - Seattle/Boeing, Washington, USA
Distance from station: NW 8mi, 13km
Updated: Wed, 30-Nov-2022 7:53am PST
NOT Current
Mostly cloudy
Mostly cloudy
 Wind from SSW
Wind: SSW 8 mph , 13 km/h
Temperature: 43°F , 6°C
Wind Chill: 38°F , 3°C
Dew Point: 37°F , 3°C
Humidity: 81%
Barometer: 29.48 inHg , 998.3 hPa
Clouds: Mostly cloudy
Visibility: 10 miles , 16 km
Cloud details: Mostly cloudy 2200 ft
2022/11/30 15:53 KBFI 301553Z 20007KT 10SM BKN022 06/03 A2948 RMK AO2 SLP983 T00560028
 
KTIW - Tacoma, Washington, USA
Distance from station: SW 22mi, 36km
Updated: Wed, 30-Nov-2022 7:53am PST
NOT Current
Partly cloudy
Partly cloudy
 Wind from SSW
Wind: SSW 10 mph , 17 km/h
Temperature: 39°F , 4°C
Wind Chill: 32°F , 0°C
Dew Point: 36°F , 2°C
Humidity: 87%
Barometer: 29.49 inHg , 998.6 hPa
Clouds: Partly cloudy
Visibility: 10 miles , 16 km
Cloud details: Partly cloudy 1400 ft
Partly cloudy 2000 ft
Partly cloudy 12000 ft
2022/11/30 15:53 KTIW 301553Z 20009KT 10SM SCT014 SCT020 SCT120 04/02 A2949 RMK AO2 SLP987 T00440022 $
KPLU - Puyallup/Thun, Washington, USA
Distance from station: S 25mi, 41km
Updated: Wed, 30-Nov-2022 8:35am PST
Mostly cloudy
Mostly cloudy
 Wind from calm
Wind: Calm
Temperature: 39°F , 4°C
Dew Point: 39°F , 4°C
Humidity: 100%
Barometer: 29.51 inHg , 999.3 hPa
Clouds: Mostly cloudy
Visibility: 10 miles , 16 km
Cloud details: Few Clouds 2500 ft
Partly cloudy 7500 ft
Mostly cloudy 11000 ft
2022/11/30 16:35 KPLU 301635Z AUTO 00000KT 10SM FEW025 SCT075 BKN110 04/04 A2951 RMK AO2
KPWT - Bremerton Ntnl, Washington, USA
Distance from station: W 26mi, 41km
Updated: Wed, 30-Nov-2022 7:56am PST
NOT Current
Overcast
Overcast
 Wind from W
Wind: W 5 mph , 7 km/h
Temperature: 36°F , 2°C
Wind Chill: 32°F , 0°C
Dew Point: 36°F , 2°C
Humidity: 100%
Barometer: 29.48 inHg , 998.3 hPa
Clouds: Overcast
Visibility: 10 miles , 16 km
Cloud details: Overcast 800 ft
2022/11/30 15:56 KPWT 301556Z AUTO 26004KT 10SM OVC008 02/02 A2948 RMK AO2 CIG 005V011 SLP989 T00220022 FZRANO
 
KTCM - Tacoma/Mc Chord, Washington, USA
Distance from station: SSW 27mi, 43km
Updated: Wed, 30-Nov-2022 7:55am PST
NOT Current
Mostly cloudy
Mostly cloudy
 Wind from SW
Wind: SW 5 mph , 7 km/h
Temperature: 37°F , 3°C
Wind Chill: 33°F , 1°C
Dew Point: 37°F , 3°C
Humidity: 100%
Barometer: 29.49 inHg , 998.6 hPa
Clouds: Mostly cloudy
Visibility: 10 miles , 16 km
Cloud details: Mostly cloudy 10000 ft
2022/11/30 15:55 KTCM 301555Z AUTO 22004KT 10SM BKN100 03/03 A2949 RMK AO2 SLP992 T00260026 $
KPAE - Everett, Washington, USA
Distance from station: N 32mi, 51km
Updated: Wed, 30-Nov-2022 8:26am PST
Light rain, Mist, Overcast
Light rain, Mist, Overcast
 Wind from N
Wind: N 5 mph , 7 km/h
Temperature: 37°F , 3°C
Wind Chill: 33°F , 1°C
Dew Point: 34°F , 1°C
Humidity: 87%
Barometer: 29.49 inHg , 998.6 hPa
Summary: Light rain, Mist
Clouds: Overcast
Visibility: 3 miles , 5 km
Cloud details: Mostly cloudy 900 ft
Overcast 2400 ft
2022/11/30 16:26 KPAE 301626Z 35004KT 3SM -RA BR BKN009 OVC024 03/01 A2949 RMK AO2 RAB22 P0001 T00280011
KGRF - Fort Lewis/Gray, Washington, USA
Distance from station: SSW 32mi, 52km
Updated: Wed, 30-Nov-2022 8:39am PST
Partly cloudy
Partly cloudy
 Wind from SSE
Wind: SSE 10 mph , 17 km/h
Temperature: 39°F , 4°C
Wind Chill: 32°F , 0°C
Dew Point: 36°F , 2°C
Humidity: 87%
Barometer: 29.48 inHg , 998.3 hPa
Clouds: Partly cloudy
Visibility: 10 miles , 16 km
Cloud details: Few Clouds 3500 ft
Partly cloudy 6000 ft
2022/11/30 16:39 KGRF 301639Z 16009KT 10SM FEW035 SCT060 04/02 A2948 RMK AO2A RAB18E39 SLPNO $
 
KSMP - Stampede Pass, Washington, USA
Distance from station: ESE 42mi, 68km
Updated: Wed, 30-Nov-2022 8:08am PST
Snow, Freezing, Fog, Overcast
Snow, Freezing, Fog, Overcast
 Wind from calm
Wind: Calm
Temperature: 25°F , -4°C
Dew Point: 21°F , -6°C
Humidity: 86%
Barometer: 29.38 inHg , 994.9 hPa
Summary: Snow, Freezing, Fog
Clouds: Overcast
Visibility: 1/4 mile , 0.4 km
Cloud details: Mostly cloudy 900 ft
Overcast 1300 ft
2022/11/30 16:08 KSMP 301608Z AUTO 00000KT 1/4SM SN FZFG BKN009 OVC013 M04/M06 A2938 RMK AO2 P0000 T10391056
KSHN - Shelton, Washington, USA
Distance from station: WSW 46mi, 75km
Updated: Wed, 30-Nov-2022 7:53am PST
NOT Current
Mostly cloudy
Mostly cloudy
 Wind from calm
Wind: Calm
Temperature: 36°F , 2°C
Dew Point: 34°F , 1°C
Humidity: 93%
Barometer: 29.46 inHg , 997.6 hPa
Clouds: Mostly cloudy
Visibility: 10 miles , 16 km
Cloud details: Mostly cloudy 10000 ft
Mostly cloudy 12000 ft
2022/11/30 15:53 KSHN 301553Z AUTO 00000KT 10SM BKN100 BKN120 02/01 A2946 RMK AO2 SLP982 T00170006
KOLM - Olympia, Washington, USA
Distance from station: SW 47mi, 76km
Updated: Wed, 30-Nov-2022 8:09am PST
Mostly cloudy
Mostly cloudy
 Wind from SSW
Wind: SSW 6 mph , 9 km/h
Temperature: 37°F , 3°C
Wind Chill: 32°F , 0°C
Dew Point: 36°F , 2°C
Humidity: 93%
Barometer: 29.51 inHg , 999.3 hPa
Clouds: Mostly cloudy
Visibility: 10 miles , 16 km
Cloud details: Few Clouds 1300 ft
Partly cloudy 3200 ft
Mostly cloudy 8000 ft
2022/11/30 16:09 KOLM 301609Z 20005KT 10SM FEW013 SCT032 BKN080 03/02 A2951 RMK AO2 RAE02 P0000 T00280022
 
KAWO - Arlington Muni, Washington, USA
Distance from station: N 49mi, 78km
Updated: Wed, 30-Nov-2022 7:56am PST
NOT Current
Light rain, Overcast
Light rain, Overcast
 Wind from S
Wind: S 3 mph , 6 km/h
Temperature: 37°F , 3°C
Dew Point: 36°F , 2°C
Humidity: 93%
Barometer: 29.49 inHg , 998.6 hPa
Summary: Light rain
Clouds: Overcast
Visibility: 10 miles , 16 km
Cloud details: Overcast 2600 ft
2022/11/30 15:56 KAWO 301556Z AUTO 18003KT 10SM -RA OVC026 03/02 A2949 RMK AO2 SLP990 P0001 T00280017